Terminal Aerodrome Forecast
Issued by NWS Charleston, WV

Home | Current Version | Previous Version | Text Only | Print | Product List | Glossary On
Versions: 1 2 3 4 5 6 7 8 9 10 11 12 13 14 15 16 17 18 19 20 21 22
000
FTUS41 KRLX 252325
TAFPKB
TAF
KPKB 252325Z 2600/2624 06003KT P6SM BKN040
     FM260200 VRB03KT P6SM SKC
     FM260600 00000KT 3SM BR SKC
     FM260900 00000KT 1 1/2SM BR SCT001
     FM261100 00000KT 1/4SM FG VV001
     FM261200 00000KT 1SM BR BKN001
     FM261300 00000KT P6SM SKC
     FM261600 18004KT P6SM SCT015
     FM261700 18004KT P6SM SCT025
     FM261800 18005KT P6SM SCT035
     FM262100 18006KT P6SM SKC=

USA.gov is the U.S. government's official web portal to all federal, state and local government web resources and services.